Bigfork, Minnesota
Current Conditions -  °F | °C
As of 6:53 PM on Friday 19 Dec 2014 (Local Time) from KFOZ Reporting Station
Light Snow Light Snow  
Wind Chill: -9°   Ceiling: 900
Heat Index: -4°   Visibility: 5mi
Dew Point: -6°   Wind: 8mph
Humidity: 86%   Direction: 150°SSE
Pressure: 30.1"   Gusts: NA
Location:  47.74°N, 93.65°W
Report Text: KFOZ 200053Z AUTO 15007KT 5SM -SN OVC009 M04/M06 A3010 RMK AO2
Loading
Personal Weather Stations






























Interactive Weather Map New forecast layout! Learn more

10-Day Weather Forecast

Advertisements
Track Severe Weather on mobile